sensor_id;sensor_type;location;lat;lon;timestamp;P1;durP1;ratioP1;P2;durP2;ratioP2
40997;SDS011;26740;45.944;12.480;2022-11-12T00:00:46;9.55;;;6.95;;
40997;SDS011;26740;45.944;12.480;2022-11-12T00:03:14;13.05;;;7.63;;
40997;SDS011;26740;45.944;12.480;2022-11-12T00:05:40;13.48;;;8.18;;
40997;SDS011;26740;45.944;12.480;2022-11-12T00:08:05;13.23;;;8.20;;
40997;SDS011;26740;45.944;12.480;2022-11-12T00:10:31;12.00;;;7.63;;
40997;SDS011;26740;45.944;12.480;2022-11-12T00:12:57;12.63;;;7.20;;
40997;SDS011;26740;45.944;12.480;2022-11-12T00:15:23;13.68;;;8.20;;
40997;SDS011;26740;45.944;12.480;2022-11-12T00:20:53;19.70;;;8.95;;
40997;SDS011;26740;45.944;12.480;2022-11-12T00:23:18;16.83;;;9.05;;
40997;SDS011;26740;45.944;12.480;2022-11-12T00:25:44;17.15;;;10.02;;
40997;SDS011;26740;45.944;12.480;2022-11-12T00:28:10;17.05;;;10.18;;
40997;SDS011;26740;45.944;12.480;2022-11-12T00:30:39;14.32;;;8.60;;
40997;SDS011;26740;45.944;12.480;2022-11-12T00:33:05;17.13;;;9.48;;
40997;SDS011;26740;45.944;12.480;2022-11-12T00:35:32;14.93;;;9.63;;
40997;SDS011;26740;45.944;12.480;2022-11-12T00:37:58;14.13;;;9.15;;
40997;SDS011;26740;45.944;12.480;2022-11-12T00:40:25;12.52;;;8.60;;
40997;SDS011;26740;45.944;12.480;2022-11-12T00:42:51;16.33;;;9.00;;
40997;SDS011;26740;45.944;12.480;2022-11-12T00:45:18;11.32;;;7.40;;
40997;SDS011;26740;45.944;12.480;2022-11-12T00:47:44;14.50;;;8.88;;
40997;SDS011;26740;45.944;12.480;2022-11-12T00:50:10;14.40;;;8.23;;
40997;SDS011;26740;45.944;12.480;2022-11-12T00:52:35;16.08;;;8.73;;
40997;SDS011;26740;45.944;12.480;2022-11-12T00:55:01;14.00;;;8.18;;
40997;SDS011;26740;45.944;12.480;2022-11-12T00:57:28;15.77;;;8.30;;
40997;SDS011;26740;45.944;12.480;2022-11-12T00:59:53;13.48;;;7.47;;
40997;SDS011;26740;45.944;12.480;2022-11-12T01:02:19;12.40;;;7.38;;
40997;SDS011;26740;45.944;12.480;2022-11-12T01:04:46;18.25;;;8.45;;
40997;SDS011;26740;45.944;12.480;2022-11-12T01:07:12;14.65;;;7.82;;
40997;SDS011;26740;45.944;12.480;2022-11-12T01:09:40;15.23;;;7.78;;
40997;SDS011;26740;45.944;12.480;2022-11-12T01:12:06;11.75;;;7.15;;
40997;SDS011;26740;45.944;12.480;2022-11-12T01:14:31;13.02;;;6.78;;
40997;SDS011;26740;45.944;12.480;2022-11-12T01:16:57;13.50;;;7.10;;
40997;SDS011;26740;45.944;12.480;2022-11-12T01:19:23;12.32;;;6.80;;
40997;SDS011;26740;45.944;12.480;2022-11-12T01:21:48;13.77;;;7.32;;
40997;SDS011;26740;45.944;12.480;2022-11-12T01:24:14;11.68;;;7.35;;
40997;SDS011;26740;45.944;12.480;2022-11-12T01:26:40;12.60;;;6.13;;
40997;SDS011;26740;45.944;12.480;2022-11-12T01:29:05;12.75;;;6.65;;
40997;SDS011;26740;45.944;12.480;2022-11-12T01:31:32;9.57;;;6.15;;
40997;SDS011;26740;45.944;12.480;2022-11-12T01:34:00;10.27;;;6.70;;
40997;SDS011;26740;45.944;12.480;2022-11-12T01:36:35;11.23;;;6.70;;
40997;SDS011;26740;45.944;12.480;2022-11-12T01:39:03;16.58;;;7.40;;
40997;SDS011;26740;45.944;12.480;2022-11-12T01:41:33;10.05;;;6.55;;
40997;SDS011;26740;45.944;12.480;2022-11-12T01:44:11;15.32;;;7.03;;
40997;SDS011;26740;45.944;12.480;2022-11-12T01:49:44;12.30;;;6.40;;
40997;SDS011;26740;45.944;12.480;2022-11-12T01:52:23;16.58;;;6.80;;
40997;SDS011;26740;45.944;12.480;2022-11-12T01:55:17;10.90;;;6.38;;
40997;SDS011;26740;45.944;12.480;2022-11-12T01:57:51;10.18;;;6.80;;
40997;SDS011;26740;45.944;12.480;2022-11-12T02:00:23;13.38;;;6.00;;
40997;SDS011;26740;45.944;12.480;2022-11-12T02:02:54;17.85;;;8.00;;
40997;SDS011;26740;45.944;12.480;2022-11-12T02:05:24;20.92;;;7.53;;
40997;SDS011;26740;45.944;12.480;2022-11-12T02:07:52;13.27;;;7.28;;
40997;SDS011;26740;45.944;12.480;2022-11-12T02:10:19;12.50;;;7.90;;
40997;SDS011;26740;45.944;12.480;2022-11-12T02:12:46;13.70;;;7.22;;
40997;SDS011;26740;45.944;12.480;2022-11-12T02:15:33;11.50;;;5.72;;
40997;SDS011;26740;45.944;12.480;2022-11-12T02:17:58;10.88;;;6.20;;
40997;SDS011;26740;45.944;12.480;2022-11-12T02:20:24;10.20;;;5.75;;
40997;SDS011;26740;45.944;12.480;2022-11-12T02:22:50;11.18;;;6.10;;
40997;SDS011;26740;45.944;12.480;2022-11-12T02:25:16;8.40;;;5.05;;
40997;SDS011;26740;45.944;12.480;2022-11-12T02:27:45;9.43;;;5.55;;
40997;SDS011;26740;45.944;12.480;2022-11-12T02:30:16;10.40;;;5.72;;
40997;SDS011;26740;45.944;12.480;2022-11-12T02:32:43;9.23;;;5.22;;
40997;SDS011;26740;45.944;12.480;2022-11-12T02:35:09;9.38;;;5.78;;
40997;SDS011;26740;45.944;12.480;2022-11-12T02:37:34;8.15;;;5.07;;
40997;SDS011;26740;45.944;12.480;2022-11-12T02:40:00;10.50;;;5.65;;
40997;SDS011;26740;45.944;12.480;2022-11-12T02:42:26;7.28;;;4.45;;
40997;SDS011;26740;45.944;12.480;2022-11-12T02:44:51;9.35;;;4.40;;
40997;SDS011;26740;45.944;12.480;2022-11-12T02:47:17;8.90;;;4.97;;
40997;SDS011;26740;45.944;12.480;2022-11-12T02:49:42;6.45;;;5.13;;
40997;SDS011;26740;45.944;12.480;2022-11-12T02:52:08;10.27;;;5.00;;
40997;SDS011;26740;45.944;12.480;2022-11-12T02:54:35;7.32;;;4.95;;
40997;SDS011;26740;45.944;12.480;2022-11-12T02:57:01;10.65;;;5.18;;
40997;SDS011;26740;45.944;12.480;2022-11-12T02:59:26;7.07;;;4.25;;
40997;SDS011;26740;45.944;12.480;2022-11-12T03:01:52;6.00;;;4.28;;
40997;SDS011;26740;45.944;12.480;2022-11-12T03:04:18;6.15;;;4.38;;
40997;SDS011;26740;45.944;12.480;2022-11-12T03:06:43;9.85;;;4.40;;
40997;SDS011;26740;45.944;12.480;2022-11-12T03:09:10;8.10;;;4.03;;
40997;SDS011;26740;45.944;12.480;2022-11-12T03:11:36;11.68;;;5.05;;
40997;SDS011;26740;45.944;12.480;2022-11-12T03:14:02;7.45;;;4.95;;
40997;SDS011;26740;45.944;12.480;2022-11-12T03:16:27;6.32;;;4.22;;
40997;SDS011;26740;45.944;12.480;2022-11-12T03:18:53;8.48;;;4.25;;
40997;SDS011;26740;45.944;12.480;2022-11-12T03:21:19;7.05;;;4.43;;
40997;SDS011;26740;45.944;12.480;2022-11-12T03:23:44;7.72;;;4.40;;
40997;SDS011;26740;45.944;12.480;2022-11-12T03:26:10;6.65;;;4.60;;
40997;SDS011;26740;45.944;12.480;2022-11-12T03:28:35;6.95;;;4.57;;
40997;SDS011;26740;45.944;12.480;2022-11-12T03:31:01;7.53;;;4.13;;
40997;SDS011;26740;45.944;12.480;2022-11-12T03:33:27;5.70;;;4.18;;
40997;SDS011;26740;45.944;12.480;2022-11-12T03:35:53;6.60;;;3.97;;
40997;SDS011;26740;45.944;12.480;2022-11-12T03:38:18;5.32;;;3.50;;
40997;SDS011;26740;45.944;12.480;2022-11-12T03:40:44;6.97;;;4.53;;
40997;SDS011;26740;45.944;12.480;2022-11-12T03:43:09;6.53;;;3.90;;
40997;SDS011;26740;45.944;12.480;2022-11-12T03:45:35;10.40;;;4.53;;
40997;SDS011;26740;45.944;12.480;2022-11-12T03:48:01;6.15;;;4.07;;
40997;SDS011;26740;45.944;12.480;2022-11-12T03:50:27;10.18;;;3.80;;
40997;SDS011;26740;45.944;12.480;2022-11-12T03:52:55;6.65;;;3.78;;
40997;SDS011;26740;45.944;12.480;2022-11-12T03:55:23;7.47;;;3.65;;
40997;SDS011;26740;45.944;12.480;2022-11-12T03:57:51;6.32;;;3.88;;
40997;SDS011;26740;45.944;12.480;2022-11-12T04:00:19;5.10;;;3.30;;
40997;SDS011;26740;45.944;12.480;2022-11-12T04:02:46;5.80;;;3.42;;
40997;SDS011;26740;45.944;12.480;2022-11-12T04:05:13;4.72;;;3.25;;
40997;SDS011;26740;45.944;12.480;2022-11-12T04:10:49;6.35;;;2.65;;
40997;SDS011;26740;45.944;12.480;2022-11-12T04:13:15;3.67;;;2.45;;
40997;SDS011;26740;45.944;12.480;2022-11-12T04:18:51;4.00;;;2.65;;
40997;SDS011;26740;45.944;12.480;2022-11-12T04:21:39;5.55;;;3.10;;
40997;SDS011;26740;45.944;12.480;2022-11-12T04:27:05;5.97;;;2.28;;
40997;SDS011;26740;45.944;12.480;2022-11-12T04:29:33;5.88;;;2.67;;
40997;SDS011;26740;45.944;12.480;2022-11-12T04:32:17;2.70;;;1.88;;
40997;SDS011;26740;45.944;12.480;2022-11-12T04:34:43;4.22;;;2.38;;
40997;SDS011;26740;45.944;12.480;2022-11-12T04:37:09;3.30;;;2.20;;
40997;SDS011;26740;45.944;12.480;2022-11-12T04:39:35;4.03;;;2.10;;
40997;SDS011;26740;45.944;12.480;2022-11-12T04:42:00;2.58;;;2.05;;
40997;SDS011;26740;45.944;12.480;2022-11-12T04:44:44;3.80;;;2.58;;
40997;SDS011;26740;45.944;12.480;2022-11-12T04:47:30;4.90;;;2.40;;
40997;SDS011;26740;45.944;12.480;2022-11-12T04:50:01;4.53;;;2.60;;
40997;SDS011;26740;45.944;12.480;2022-11-12T04:52:31;4.45;;;2.10;;
40997;SDS011;26740;45.944;12.480;2022-11-12T04:54:56;6.07;;;2.50;;
40997;SDS011;26740;45.944;12.480;2022-11-12T04:57:22;4.13;;;1.98;;
40997;SDS011;26740;45.944;12.480;2022-11-12T04:59:48;2.92;;;1.83;;
40997;SDS011;26740;45.944;12.480;2022-11-12T05:02:15;4.22;;;2.30;;
40997;SDS011;26740;45.944;12.480;2022-11-12T05:04:41;2.88;;;2.08;;
40997;SDS011;26740;45.944;12.480;2022-11-12T05:07:08;3.40;;;2.03;;
40997;SDS011;26740;45.944;12.480;2022-11-12T05:09:34;4.18;;;2.42;;
40997;SDS011;26740;45.944;12.480;2022-11-12T05:12:01;5.97;;;2.63;;
40997;SDS011;26740;45.944;12.480;2022-11-12T05:14:27;3.83;;;2.53;;
40997;SDS011;26740;45.944;12.480;2022-11-12T05:16:53;4.18;;;2.22;;
40997;SDS011;26740;45.944;12.480;2022-11-12T05:19:18;3.88;;;1.98;;
40997;SDS011;26740;45.944;12.480;2022-11-12T05:21:44;6.00;;;1.90;;
40997;SDS011;26740;45.944;12.480;2022-11-12T05:24:30;3.33;;;1.58;;
40997;SDS011;26740;45.944;12.480;2022-11-12T05:27:00;4.13;;;2.42;;
40997;SDS011;26740;45.944;12.480;2022-11-12T05:29:25;3.40;;;1.67;;
40997;SDS011;26740;45.944;12.480;2022-11-12T05:31:51;2.35;;;2.15;;
40997;SDS011;26740;45.944;12.480;2022-11-12T05:34:17;4.15;;;2.40;;
40997;SDS011;26740;45.944;12.480;2022-11-12T05:36:42;4.60;;;1.83;;
40997;SDS011;26740;45.944;12.480;2022-11-12T05:39:08;3.60;;;1.77;;
40997;SDS011;26740;45.944;12.480;2022-11-12T05:41:34;6.63;;;2.28;;
40997;SDS011;26740;45.944;12.480;2022-11-12T05:43:59;1.90;;;1.60;;
40997;SDS011;26740;45.944;12.480;2022-11-12T05:46:25;2.92;;;1.73;;
40997;SDS011;26740;45.944;12.480;2022-11-12T05:48:50;3.40;;;1.35;;
40997;SDS011;26740;45.944;12.480;2022-11-12T05:51:16;5.00;;;1.95;;
40997;SDS011;26740;45.944;12.480;2022-11-12T05:53:42;3.50;;;1.75;;
40997;SDS011;26740;45.944;12.480;2022-11-12T05:56:08;8.77;;;1.98;;
40997;SDS011;26740;45.944;12.480;2022-11-12T05:58:35;4.47;;;1.80;;
40997;SDS011;26740;45.944;12.480;2022-11-12T06:01:01;2.10;;;1.27;;
40997;SDS011;26740;45.944;12.480;2022-11-12T06:03:28;3.88;;;1.70;;
40997;SDS011;26740;45.944;12.480;2022-11-12T06:05:54;2.30;;;1.65;;
40997;SDS011;26740;45.944;12.480;2022-11-12T06:08:19;4.30;;;1.98;;
40997;SDS011;26740;45.944;12.480;2022-11-12T06:10:49;5.43;;;2.35;;
40997;SDS011;26740;45.944;12.480;2022-11-12T06:13:17;9.05;;;2.58;;
40997;SDS011;26740;45.944;12.480;2022-11-12T06:15:43;2.50;;;2.25;;
40997;SDS011;26740;45.944;12.480;2022-11-12T06:18:09;4.65;;;2.10;;
40997;SDS011;26740;45.944;12.480;2022-11-12T06:20:36;5.90;;;2.20;;
40997;SDS011;26740;45.944;12.480;2022-11-12T06:23:02;8.93;;;2.35;;
40997;SDS011;26740;45.944;12.480;2022-11-12T06:25:28;4.90;;;2.20;;
40997;SDS011;26740;45.944;12.480;2022-11-12T06:27:54;4.22;;;2.33;;
40997;SDS011;26740;45.944;12.480;2022-11-12T06:30:20;7.35;;;2.88;;
40997;SDS011;26740;45.944;12.480;2022-11-12T06:32:46;4.35;;;2.60;;
40997;SDS011;26740;45.944;12.480;2022-11-12T06:35:15;2.83;;;2.45;;
40997;SDS011;26740;45.944;12.480;2022-11-12T06:37:44;6.47;;;3.00;;
40997;SDS011;26740;45.944;12.480;2022-11-12T06:40:11;3.55;;;2.25;;
40997;SDS011;26740;45.944;12.480;2022-11-12T06:42:38;9.40;;;2.80;;
40997;SDS011;26740;45.944;12.480;2022-11-12T06:45:04;5.85;;;2.33;;
40997;SDS011;26740;45.944;12.480;2022-11-12T06:47:31;4.25;;;1.88;;
40997;SDS011;26740;45.944;12.480;2022-11-12T06:49:56;7.07;;;2.30;;
40997;SDS011;26740;45.944;12.480;2022-11-12T06:52:22;6.20;;;2.45;;
40997;SDS011;26740;45.944;12.480;2022-11-12T06:54:47;3.58;;;2.30;;
40997;SDS011;26740;45.944;12.480;2022-11-12T06:57:13;5.60;;;2.05;;
40997;SDS011;26740;45.944;12.480;2022-11-12T06:59:38;4.88;;;2.17;;
40997;SDS011;26740;45.944;12.480;2022-11-12T07:02:04;4.90;;;2.28;;
40997;SDS011;26740;45.944;12.480;2022-11-12T07:04:30;4.22;;;2.15;;
40997;SDS011;26740;45.944;12.480;2022-11-12T07:06:56;5.65;;;4.00;;
40997;SDS011;26740;45.944;12.480;2022-11-12T07:09:21;4.38;;;2.30;;
40997;SDS011;26740;45.944;12.480;2022-11-12T07:11:47;2.63;;;1.40;;
40997;SDS011;26740;45.944;12.480;2022-11-12T07:14:13;3.55;;;1.75;;
40997;SDS011;26740;45.944;12.480;2022-11-12T07:16:38;2.65;;;1.98;;
40997;SDS011;26740;45.944;12.480;2022-11-12T07:19:04;3.10;;;1.85;;
40997;SDS011;26740;45.944;12.480;2022-11-12T07:21:29;3.75;;;1.80;;
40997;SDS011;26740;45.944;12.480;2022-11-12T07:23:55;4.18;;;2.72;;
40997;SDS011;26740;45.944;12.480;2022-11-12T07:26:22;2.53;;;1.98;;
40997;SDS011;26740;45.944;12.480;2022-11-12T07:28:50;3.03;;;2.13;;
40997;SDS011;26740;45.944;12.480;2022-11-12T07:31:17;3.30;;;2.25;;
40997;SDS011;26740;45.944;12.480;2022-11-12T07:33:44;4.38;;;2.17;;
40997;SDS011;26740;45.944;12.480;2022-11-12T07:36:14;7.65;;;2.13;;
40997;SDS011;26740;45.944;12.480;2022-11-12T07:38:42;5.55;;;2.10;;
40997;SDS011;26740;45.944;12.480;2022-11-12T07:41:15;3.92;;;1.98;;
40997;SDS011;26740;45.944;12.480;2022-11-12T07:43:44;2.45;;;1.50;;
40997;SDS011;26740;45.944;12.480;2022-11-12T07:46:12;2.60;;;1.52;;
40997;SDS011;26740;45.944;12.480;2022-11-12T07:48:40;4.10;;;1.80;;
40997;SDS011;26740;45.944;12.480;2022-11-12T07:51:15;2.25;;;1.83;;
40997;SDS011;26740;45.944;12.480;2022-11-12T07:53:42;4.25;;;1.88;;
40997;SDS011;26740;45.944;12.480;2022-11-12T07:56:13;3.80;;;2.15;;
40997;SDS011;26740;45.944;12.480;2022-11-12T07:58:43;5.90;;;2.30;;
40997;SDS011;26740;45.944;12.480;2022-11-12T08:01:31;4.55;;;2.40;;
40997;SDS011;26740;45.944;12.480;2022-11-12T08:04:13;5.60;;;2.78;;
40997;SDS011;26740;45.944;12.480;2022-11-12T08:06:38;3.75;;;2.10;;
40997;SDS011;26740;45.944;12.480;2022-11-12T08:09:05;3.03;;;1.50;;
40997;SDS011;26740;45.944;12.480;2022-11-12T08:11:32;2.70;;;2.25;;
40997;SDS011;26740;45.944;12.480;2022-11-12T08:13:58;4.43;;;2.60;;
40997;SDS011;26740;45.944;12.480;2022-11-12T08:16:24;9.25;;;2.20;;
40997;SDS011;26740;45.944;12.480;2022-11-12T08:18:50;10.25;;;4.82;;
40997;SDS011;26740;45.944;12.480;2022-11-12T08:21:16;13.30;;;6.05;;
40997;SDS011;26740;45.944;12.480;2022-11-12T08:23:43;6.53;;;4.82;;
40997;SDS011;26740;45.944;12.480;2022-11-12T08:26:10;5.97;;;4.53;;
40997;SDS011;26740;45.944;12.480;2022-11-12T08:28:38;16.83;;;4.50;;
40997;SDS011;26740;45.944;12.480;2022-11-12T08:33:31;10.55;;;5.88;;
40997;SDS011;26740;45.944;12.480;2022-11-12T08:35:57;4.80;;;3.35;;
40997;SDS011;26740;45.944;12.480;2022-11-12T08:38:23;8.13;;;3.50;;
40997;SDS011;26740;45.944;12.480;2022-11-12T08:40:49;9.57;;;4.13;;
40997;SDS011;26740;45.944;12.480;2022-11-12T08:43:14;8.80;;;4.53;;
40997;SDS011;26740;45.944;12.480;2022-11-12T08:45:40;11.77;;;4.65;;
40997;SDS011;26740;45.944;12.480;2022-11-12T08:48:07;7.00;;;4.57;;
40997;SDS011;26740;45.944;12.480;2022-11-12T08:50:38;4.40;;;3.33;;
40997;SDS011;26740;45.944;12.480;2022-11-12T08:53:05;5.70;;;3.67;;
40997;SDS011;26740;45.944;12.480;2022-11-12T08:55:32;3.25;;;2.50;;
40997;SDS011;26740;45.944;12.480;2022-11-12T08:57:59;4.90;;;1.70;;
40997;SDS011;26740;45.944;12.480;2022-11-12T09:00:28;2.83;;;2.00;;
40997;SDS011;26740;45.944;12.480;2022-11-12T09:02:58;3.20;;;2.00;;
40997;SDS011;26740;45.944;12.480;2022-11-12T09:05:24;3.35;;;2.22;;
40997;SDS011;26740;45.944;12.480;2022-11-12T09:07:57;4.25;;;2.35;;
40997;SDS011;26740;45.944;12.480;2022-11-12T09:10:24;5.10;;;2.88;;
40997;SDS011;26740;45.944;12.480;2022-11-12T09:12:50;5.43;;;3.25;;
40997;SDS011;26740;45.944;12.480;2022-11-12T09:15:17;7.43;;;2.70;;
40997;SDS011;26740;45.944;12.480;2022-11-12T09:17:43;6.88;;;2.90;;
40997;SDS011;26740;45.944;12.480;2022-11-12T09:20:09;6.03;;;3.30;;
40997;SDS011;26740;45.944;12.480;2022-11-12T09:22:34;5.88;;;3.67;;
40997;SDS011;26740;45.944;12.480;2022-11-12T09:25:00;7.40;;;2.72;;
40997;SDS011;26740;45.944;12.480;2022-11-12T09:27:26;6.13;;;2.67;;
40997;SDS011;26740;45.944;12.480;2022-11-12T09:29:52;5.63;;;3.60;;
40997;SDS011;26740;45.944;12.480;2022-11-12T09:32:18;7.63;;;3.20;;
40997;SDS011;26740;45.944;12.480;2022-11-12T09:34:44;4.57;;;3.25;;
40997;SDS011;26740;45.944;12.480;2022-11-12T09:37:09;5.78;;;4.03;;
40997;SDS011;26740;45.944;12.480;2022-11-12T09:39:35;7.50;;;4.85;;
40997;SDS011;26740;45.944;12.480;2022-11-12T09:42:05;8.73;;;4.50;;
40997;SDS011;26740;45.944;12.480;2022-11-12T09:44:33;9.13;;;4.97;;
40997;SDS011;26740;45.944;12.480;2022-11-12T09:47:05;7.03;;;5.20;;
40997;SDS011;26740;45.944;12.480;2022-11-12T09:49:49;6.70;;;4.53;;
40997;SDS011;26740;45.944;12.480;2022-11-12T09:52:28;4.93;;;3.67;;
40997;SDS011;26740;45.944;12.480;2022-11-12T09:55:11;4.13;;;3.72;;
40997;SDS011;26740;45.944;12.480;2022-11-12T09:57:43;6.40;;;3.80;;
40997;SDS011;26740;45.944;12.480;2022-11-12T10:00:18;6.68;;;3.30;;
40997;SDS011;26740;45.944;12.480;2022-11-12T10:05:47;4.57;;;2.90;;
40997;SDS011;26740;45.944;12.480;2022-11-12T10:11:06;7.07;;;2.95;;
40997;SDS011;26740;45.944;12.480;2022-11-12T10:19:14;4.97;;;3.33;;
40997;SDS011;26740;45.944;12.480;2022-11-12T10:21:53;8.00;;;2.83;;
40997;SDS011;26740;45.944;12.480;2022-11-12T10:24:26;6.15;;;3.47;;
40997;SDS011;26740;45.944;12.480;2022-11-12T10:26:57;5.85;;;3.55;;
40997;SDS011;26740;45.944;12.480;2022-11-12T10:29:28;6.35;;;4.13;;
40997;SDS011;26740;45.944;12.480;2022-11-12T10:32:02;7.95;;;3.90;;
40997;SDS011;26740;45.944;12.480;2022-11-12T10:34:28;12.30;;;2.35;;
40997;SDS011;26740;45.944;12.480;2022-11-12T10:36:56;3.75;;;2.13;;
40997;SDS011;26740;45.944;12.480;2022-11-12T10:39:40;5.40;;;1.98;;
40997;SDS011;26740;45.944;12.480;2022-11-12T10:42:12;3.10;;;2.05;;
40997;SDS011;26740;45.944;12.480;2022-11-12T10:44:40;3.60;;;1.95;;
40997;SDS011;26740;45.944;12.480;2022-11-12T10:53:08;3.05;;;0.93;;
40997;SDS011;26740;45.944;12.480;2022-11-12T10:55:57;3.35;;;1.48;;
40997;SDS011;26740;45.944;12.480;2022-11-12T10:58:23;3.00;;;1.40;;
40997;SDS011;26740;45.944;12.480;2022-11-12T11:01:34;4.57;;;1.63;;
40997;SDS011;26740;45.944;12.480;2022-11-12T11:03:44;19.42;;;8.82;;
40997;SDS011;26740;45.944;12.480;2022-11-12T11:08:42;3.00;;;1.40;;
40997;SDS011;26740;45.944;12.480;2022-11-12T11:13:41;3.95;;;1.52;;
40997;SDS011;26740;45.944;12.480;2022-11-12T11:16:10;4.60;;;1.95;;
40997;SDS011;26740;45.944;12.480;2022-11-12T11:18:41;4.53;;;2.33;;
40997;SDS011;26740;45.944;12.480;2022-11-12T11:29:50;5.43;;;2.88;;
40997;SDS011;26740;45.944;12.480;2022-11-12T11:58:02;2.00;;;1.40;;
40997;SDS011;26740;45.944;12.480;2022-11-12T12:03:43;3.72;;;1.98;;
40997;SDS011;26740;45.944;12.480;2022-11-12T12:11:46;6.00;;;1.60;;
40997;SDS011;26740;45.944;12.480;2022-11-12T12:22:15;2.80;;;1.65;;
40997;SDS011;26740;45.944;12.480;2022-11-12T12:27:25;2.03;;;1.63;;
40997;SDS011;26740;45.944;12.480;2022-11-12T12:29:58;4.28;;;2.10;;
40997;SDS011;26740;45.944;12.480;2022-11-12T12:32:29;3.05;;;1.95;;
40997;SDS011;26740;45.944;12.480;2022-11-12T12:35:04;3.10;;;1.50;;
40997;SDS011;26740;45.944;12.480;2022-11-12T12:37:40;3.83;;;2.15;;
40997;SDS011;26740;45.944;12.480;2022-11-12T12:40:19;3.72;;;2.15;;
40997;SDS011;26740;45.944;12.480;2022-11-12T12:47:48;5.32;;;2.22;;
40997;SDS011;26740;45.944;12.480;2022-11-12T12:50:15;4.63;;;1.73;;
40997;SDS011;26740;45.944;12.480;2022-11-12T12:53:01;5.17;;;2.07;;
40997;SDS011;26740;45.944;12.480;2022-11-12T12:58:14;4.75;;;2.13;;
40997;SDS011;26740;45.944;12.480;2022-11-12T13:00:51;3.20;;;1.95;;
40997;SDS011;26740;45.944;12.480;2022-11-12T13:04:09;5.03;;;2.13;;
40997;SDS011;26740;45.944;12.480;2022-11-12T13:17:03;3.20;;;1.60;;
40997;SDS011;26740;45.944;12.480;2022-11-12T13:38:21;7.85;;;1.75;;
40997;SDS011;26740;45.944;12.480;2022-11-12T13:40:33;2.97;;;2.00;;
40997;SDS011;26740;45.944;12.480;2022-11-12T13:48:45;5.70;;;2.17;;
40997;SDS011;26740;45.944;12.480;2022-11-12T13:53:58;4.55;;;2.20;;
40997;SDS011;26740;45.944;12.480;2022-11-12T13:56:28;6.10;;;2.58;;
40997;SDS011;26740;45.944;12.480;2022-11-12T13:59:15;8.60;;;2.22;;
40997;SDS011;26740;45.944;12.480;2022-11-12T14:01:43;4.60;;;2.35;;
40997;SDS011;26740;45.944;12.480;2022-11-12T14:04:10;7.07;;;2.50;;
40997;SDS011;26740;45.944;12.480;2022-11-12T14:06:40;3.78;;;2.63;;
40997;SDS011;26740;45.944;12.480;2022-11-12T14:09:16;7.43;;;3.13;;
40997;SDS011;26740;45.944;12.480;2022-11-12T14:22:40;5.82;;;3.38;;
40997;SDS011;26740;45.944;12.480;2022-11-12T14:25:12;5.00;;;3.63;;
40997;SDS011;26740;45.944;12.480;2022-11-12T14:27:50;7.20;;;4.40;;
40997;SDS011;26740;45.944;12.480;2022-11-12T14:30:23;7.00;;;4.60;;
40997;SDS011;26740;45.944;12.480;2022-11-12T14:33:38;10.55;;;4.47;;
40997;SDS011;26740;45.944;12.480;2022-11-12T14:35:46;7.63;;;4.88;;
40997;SDS011;26740;45.944;12.480;2022-11-12T14:38:17;8.65;;;4.82;;
40997;SDS011;26740;45.944;12.480;2022-11-12T14:41:00;6.35;;;3.92;;
40997;SDS011;26740;45.944;12.480;2022-11-12T14:43:43;6.28;;;4.05;;
40997;SDS011;26740;45.944;12.480;2022-11-12T14:46:43;9.30;;;4.65;;
40997;SDS011;26740;45.944;12.480;2022-11-12T14:51:48;8.65;;;4.05;;
40997;SDS011;26740;45.944;12.480;2022-11-12T14:54:28;6.82;;;3.83;;
40997;SDS011;26740;45.944;12.480;2022-11-12T14:56:58;7.22;;;4.13;;
40997;SDS011;26740;45.944;12.480;2022-11-12T14:59:27;8.98;;;3.60;;
40997;SDS011;26740;45.944;12.480;2022-11-12T15:04:37;8.32;;;3.50;;
40997;SDS011;26740;45.944;12.480;2022-11-12T15:07:21;6.95;;;4.68;;
40997;SDS011;26740;45.944;12.480;2022-11-12T15:09:48;14.90;;;5.13;;
40997;SDS011;26740;45.944;12.480;2022-11-12T15:12:18;7.63;;;3.83;;
40997;SDS011;26740;45.944;12.480;2022-11-12T15:14:53;5.53;;;3.50;;
40997;SDS011;26740;45.944;12.480;2022-11-12T15:17:33;5.47;;;3.00;;
40997;SDS011;26740;45.944;12.480;2022-11-12T15:20:05;4.38;;;3.38;;
40997;SDS011;26740;45.944;12.480;2022-11-12T15:22:39;4.35;;;3.33;;
40997;SDS011;26740;45.944;12.480;2022-11-12T15:25:08;6.32;;;3.20;;
40997;SDS011;26740;45.944;12.480;2022-11-12T15:27:46;7.53;;;3.20;;
40997;SDS011;26740;45.944;12.480;2022-11-12T15:30:19;4.82;;;3.35;;
40997;SDS011;26740;45.944;12.480;2022-11-12T15:32:47;11.57;;;3.75;;
40997;SDS011;26740;45.944;12.480;2022-11-12T15:37:51;8.02;;;3.92;;
40997;SDS011;26740;45.944;12.480;2022-11-12T15:40:18;7.95;;;4.38;;
40997;SDS011;26740;45.944;12.480;2022-11-12T15:42:45;11.20;;;3.90;;
40997;SDS011;26740;45.944;12.480;2022-11-12T15:45:13;11.70;;;4.60;;
40997;SDS011;26740;45.944;12.480;2022-11-12T15:47:41;8.02;;;3.85;;
40997;SDS011;26740;45.944;12.480;2022-11-12T15:50:10;9.95;;;4.47;;
40997;SDS011;26740;45.944;12.480;2022-11-12T15:52:41;13.32;;;4.65;;
40997;SDS011;26740;45.944;12.480;2022-11-12T15:55:07;12.65;;;4.43;;
40997;SDS011;26740;45.944;12.480;2022-11-12T15:57:38;9.10;;;5.10;;
40997;SDS011;26740;45.944;12.480;2022-11-12T16:00:21;33.33;;;4.97;;
40997;SDS011;26740;45.944;12.480;2022-11-12T16:02:53;13.23;;;4.50;;
40997;SDS011;26740;45.944;12.480;2022-11-12T16:05:23;9.18;;;4.75;;
40997;SDS011;26740;45.944;12.480;2022-11-12T16:07:49;15.00;;;5.28;;
40997;SDS011;26740;45.944;12.480;2022-11-12T16:10:16;7.88;;;4.95;;
40997;SDS011;26740;45.944;12.480;2022-11-12T16:12:44;6.35;;;4.10;;
40997;SDS011;26740;45.944;12.480;2022-11-12T16:15:16;12.38;;;4.82;;
40997;SDS011;26740;45.944;12.480;2022-11-12T16:17:44;12.70;;;5.95;;
40997;SDS011;26740;45.944;12.480;2022-11-12T16:20:11;11.50;;;5.18;;
40997;SDS011;26740;45.944;12.480;2022-11-12T16:22:42;7.47;;;5.65;;
40997;SDS011;26740;45.944;12.480;2022-11-12T16:25:08;9.43;;;5.95;;
40997;SDS011;26740;45.944;12.480;2022-11-12T16:27:35;13.65;;;5.78;;
40997;SDS011;26740;45.944;12.480;2022-11-12T16:30:03;11.85;;;4.93;;
40997;SDS011;26740;45.944;12.480;2022-11-12T16:32:31;8.50;;;5.63;;
40997;SDS011;26740;45.944;12.480;2022-11-12T16:34:57;12.73;;;6.28;;
40997;SDS011;26740;45.944;12.480;2022-11-12T16:37:22;11.95;;;6.03;;
40997;SDS011;26740;45.944;12.480;2022-11-12T16:39:48;12.73;;;7.53;;
40997;SDS011;26740;45.944;12.480;2022-11-12T16:42:13;17.88;;;8.70;;
40997;SDS011;26740;45.944;12.480;2022-11-12T16:44:39;14.77;;;7.90;;
40997;SDS011;26740;45.944;12.480;2022-11-12T16:47:04;16.95;;;11.05;;
40997;SDS011;26740;45.944;12.480;2022-11-12T16:49:30;21.33;;;13.05;;
40997;SDS011;26740;45.944;12.480;2022-11-12T16:51:56;23.80;;;12.70;;
40997;SDS011;26740;45.944;12.480;2022-11-12T16:54:23;36.20;;;17.13;;
40997;SDS011;26740;45.944;12.480;2022-11-12T16:56:48;33.88;;;17.48;;
40997;SDS011;26740;45.944;12.480;2022-11-12T16:59:14;26.50;;;15.77;;
40997;SDS011;26740;45.944;12.480;2022-11-12T17:01:39;28.90;;;16.20;;
40997;SDS011;26740;45.944;12.480;2022-11-12T17:04:05;23.08;;;13.88;;
40997;SDS011;26740;45.944;12.480;2022-11-12T17:06:32;23.83;;;14.25;;
40997;SDS011;26740;45.944;12.480;2022-11-12T17:09:00;27.00;;;14.05;;
40997;SDS011;26740;45.944;12.480;2022-11-12T17:11:28;25.88;;;15.32;;
40997;SDS011;26740;45.944;12.480;2022-11-12T17:13:53;23.80;;;16.23;;
40997;SDS011;26740;45.944;12.480;2022-11-12T17:16:19;33.63;;;20.00;;
40997;SDS011;26740;45.944;12.480;2022-11-12T17:18:44;32.08;;;18.60;;